Share

Rodney, IA (51051)

12:17 AM CDT on April 24, 2014 (GMT -0500)
The Danbury Review (KIADANBU2) Elev 1162 ft | 42.24 °N, 95.72 °W | Change Station

Current weather conditions updated 2 minutes ago

Rain
Rain
49.2 °F
Feels Like 49 °F
N
0.0
Wind Variable Wind from ENE
Gusts 0.0 mph
Sunrise 6:29 AM
Sunset 8:15 PM
Moon Waning Crescent

Today is forecast to be Much Warmer than yesterday. Morning showers.

Pressure 29.67 in
Visibility 9.0 miles
Clouds Overcast 9000 ft
Windchill 49 °F
Dew Point 45 °F
Humidity 85%
Rainfall -999.00 in
Snow Depth Not available.
UV 0 out of 16
Pollen 10.40 out of 12
Air Quality Not available.
Flu Activity Sporadic
METAR KSUX 240452Z 15017G27KT 9SM RA OVC090 12/09 A2967 RMK AO2 PK WND 15027/0450 WSHFT 0410 LTG DSNT SE SLP047 P0003 T01220094

More Conditions Fewer Conditions

Pressure 29.67 in
Visibility 9.0 miles
Clouds Overcast 9000 ft
Windchill 49 °F
Dew Point 45 °F
Humidity 85%
Rainfall -999.00 in
Snow Depth Not available.
UV 0 out of 16
Pollen 10.40 out of 12
Air Quality Not available.
Flu Activity Sporadic
METAR KSUX 240452Z 15017G27KT 9SM RA OVC090 12/09 A2967 RMK AO2 PK WND 15027/0450 WSHFT 0410 LTG DSNT SE SLP047 P0003 T01220094

More Conditions Fewer Conditions

10-Day Weather Forecast

Almanac

Astronomy

Apr. 24, 2014 Rise Set
Actual Time 6:29 AM CDT 8:15 PM CDT
Civil Twilight 5:59 AM CDT 8:45 PM CDT
Nautical Twilight 5:23 AM CDT 9:21 PM CDT
Astronomical Twilight 4:44 AM CDT 10:01 PM CDT
Moon 3:46 AM CDT 3:26 PM CDT
Length of Visible Light 14h 45m
Length of Day
13h 46m
Tomorrow will be 2m 35s longer.
Waning Crescent, 29% of the Moon is Illuminated
Today
Waning Crescent
Apr 29
New
May 6
First Quarter
May 14
Full
May 21
Last Quarter

Today's Extremes

State Highs State Lows

Community

  • Stacked
    Stacked
  • clouds approaching Red Sox Nation
    clouds approaching Red Sox Nation
  • Balance
    Balance
  • Nestled In
    Nestled In
  • Stunning Sunrise
    Stunning Sunrise

WunderPhotos

Upload Photos

1,704,564 photos uploaded!

WunderBlogs® & News

Nearby

Snow Depth

Station Depth Elevation
No new snow has been reported.

Coastal Water Temperatures

Place Temperature
No Stations Reporting

Earthquake Activity

City Distance Mag. Time & Date
No recent earthquake activity has been reported nearby.
Minimum magnitude displayed is 2.5.

Nearby Weather Stations

Station Location Temp. Windchill Dew Point Humidity Wind Precip. Elev Updated Type
HADS WEST FORK DITCH AT HORNICK IA, Rodney, IA 52 °F - - - North  at  - 0.11 in / hr 1045 ft 11:00 PM CDT MADIS
The Danbury Review, Danbury, IA 49.2 °F 49 °F 45 °F 85% ENE  at  0.0 mph 0.17 in / hr 1162 ft 12:15 AM CDT Normal
MesoWest SALIX , Salix, IA 48 °F 48 °F - - North  at  - 0.00 in / hr 1077 ft 10:25 PM CDT MADIS

Show More Stations Show Fewer Stations

What do you think?

We're not finished. Please let us know what you like, what you don't like, and what you are still missing.